ΕΜΥ, Εθνική Μετεωρολογική Υπηρεσία - Δελτία Καιρού, Προγνώσεις

ΑΕΡΟΝΑΥΤΙΛΙΑ

GREEK AIRPORTS CODES

LGIK 251500Z AUTO 17010KT 130V200 //// // ////// 18/11 Q1015 RE//=

EUROPEAN AIRPORTS CODES

LFPO 251500Z 14010KT 4500 -RA BR BKN012 08/06 Q0993 NOSIG=